Flight Number: EUR2194 Duration: 1:15
Departure: Beograd/Belgrade (LYBE) at 21:15 Distance: 411 Nm
Arrival: Munich Int'l (EDDM) at 22:30 Equipment: B737

Weather Information
Beograd / Surcin, Serbia and Montenegro (LYBE) 44-49N 020-17E 99M Feb 24, 2018 - 01:00 AM EST / 2018.02.24 0600 UTC
Wind: from the N (010 degrees) at 12 MPH (10 KT):0
Visibility: 1 mile(s):0
Sky conditions: mostly cloudy Weather: light snow Temperature: 32 F (0 C)
Windchill: 23 F (-5 C):1 Dew Point: 30 F (-1 C) Relative Humidity: 92% Pressure (altimeter): 29.97 in. Hg (1015 hPa)
ob: LYBE 240600Z 01010KT 2500 -SN BKN003 BKN020 00/M01 Q1015 NOSIG cycle: 6
Sunrise: 05:27 Sunset: 16:16 (UTC)

Munchen, Germany (EDDM) 48-21N 011-47E Feb 24, 2018 - 12:50 AM EST / 2018.02.24 0550 UTC
Wind: from the ENE (070 degrees) at 12 MPH (10 KT):0
Visibility: greater than 7 mile(s):0
Sky conditions: partly cloudy Temperature: 23 F (-5 C)
Windchill: 12 F (-11 C):1 Dew Point: 17 F (-8 C) Relative Humidity: 79% Pressure (altimeter): 30.03 in. Hg (1017 hPa)
ob: EDDM 240550Z 07010KT 9999 SCT018 M05/M08 Q1017 NOSIG cycle: 6
Sunrise: 06:06 Sunset: 16:45 (UTC)

TAF:2018/02/24 06:27 TAF EDDM 240500Z 2406/2512 07012KT 9999 SCT020 BECMG 2407/2409 07015G25KT BECMG 2418/2420 07012KT

Previous Pireps for this route
Date Aircraft Flight time Fuel used Landing rate On time
2013-10-30B73701.248538-200Yes
2014-02-21B73701.4411407-291No
2016-01-18B73701.147400-302Yes
(pireps marked green are flown by you)

Route map